In Rescue
 
Open Full Screen Window  High Contrast Mode
Wind Gusting 00 knots
08
March 01, 2024 3:36 PM EST
Weather Information
Wind Direction
  200 °
Wind Speed
  08 kt (9 mph)
Wind Gust
  00 kt (0 mph)
Altimeter
30.06 in
Visibility
10 SM
Temperature
10° C
50° F
Dewpoint
-07° C
19° F
Humidity
30%
Sky Condition
Clear
VFR

METAR KCVX 012036Z AUTO 20008KT 10SM CLR 10/M07 A3006 RMK AO2 T00961066

FAA Disclaimer: The data displayed is for advisory purposes only and is not to be used for flight planning or operations.